sensor_id;sensor_type;location;lat;lon;timestamp;pressure;altitude;pressure_sealevel;temperature;humidity
64933;BME280;51446;53.850;10.662;2024-01-30T00:01:36;102710.38;;;2.83;100.00
64933;BME280;51446;53.850;10.662;2024-01-30T00:04:02;102696.16;;;2.78;100.00
64933;BME280;51446;53.850;10.662;2024-01-30T00:06:27;102700.06;;;2.73;100.00
64933;BME280;51446;53.850;10.662;2024-01-30T00:08:52;102702.59;;;2.61;100.00
64933;BME280;51446;53.850;10.662;2024-01-30T00:11:18;102708.38;;;2.69;100.00
64933;BME280;51446;53.850;10.662;2024-01-30T00:13:43;102705.50;;;2.76;100.00
64933;BME280;51446;53.850;10.662;2024-01-30T00:16:20;102710.44;;;2.73;100.00
64933;BME280;51446;53.850;10.662;2024-01-30T00:18:45;102707.97;;;2.74;100.00
64933;BME280;51446;53.850;10.662;2024-01-30T00:21:11;102705.66;;;2.67;100.00
64933;BME280;51446;53.850;10.662;2024-01-30T00:23:36;102703.13;;;2.79;100.00
64933;BME280;51446;53.850;10.662;2024-01-30T00:26:01;102707.53;;;2.80;100.00
64933;BME280;51446;53.850;10.662;2024-01-30T00:28:27;102712.31;;;2.86;100.00
64933;BME280;51446;53.850;10.662;2024-01-30T00:30:52;102711.44;;;2.75;100.00
64933;BME280;51446;53.850;10.662;2024-01-30T00:33:17;102713.03;;;2.73;100.00
64933;BME280;51446;53.850;10.662;2024-01-30T00:35:43;102714.09;;;2.65;100.00
64933;BME280;51446;53.850;10.662;2024-01-30T00:38:08;102714.28;;;2.56;100.00
64933;BME280;51446;53.850;10.662;2024-01-30T00:40:33;102712.03;;;2.38;100.00
64933;BME280;51446;53.850;10.662;2024-01-30T00:42:58;102714.63;;;2.38;100.00
64933;BME280;51446;53.850;10.662;2024-01-30T00:45:24;102714.16;;;2.22;100.00
64933;BME280;51446;53.850;10.662;2024-01-30T00:47:49;102714.78;;;2.30;100.00
64933;BME280;51446;53.850;10.662;2024-01-30T00:50:14;102714.63;;;2.38;100.00
64933;BME280;51446;53.850;10.662;2024-01-30T00:52:40;102711.38;;;2.41;100.00
64933;BME280;51446;53.850;10.662;2024-01-30T00:55:06;102707.50;;;2.36;100.00
64933;BME280;51446;53.850;10.662;2024-01-30T00:57:31;102696.34;;;2.15;100.00
64933;BME280;51446;53.850;10.662;2024-01-30T00:59:57;102697.63;;;2.10;100.00
64933;BME280;51446;53.850;10.662;2024-01-30T01:02:22;102695.44;;;2.04;100.00
64933;BME280;51446;53.850;10.662;2024-01-30T01:04:47;102692.78;;;2.24;100.00
64933;BME280;51446;53.850;10.662;2024-01-30T01:07:13;102687.81;;;2.05;100.00
64933;BME280;51446;53.850;10.662;2024-01-30T01:09:38;102687.03;;;2.06;100.00
64933;BME280;51446;53.850;10.662;2024-01-30T01:12:04;102691.56;;;2.09;100.00
64933;BME280;51446;53.850;10.662;2024-01-30T01:14:30;102693.06;;;2.17;100.00
64933;BME280;51446;53.850;10.662;2024-01-30T01:16:55;102693.91;;;2.38;100.00
64933;BME280;51446;53.850;10.662;2024-01-30T01:19:21;102695.19;;;2.43;100.00
64933;BME280;51446;53.850;10.662;2024-01-30T01:21:46;102692.44;;;2.42;100.00
64933;BME280;51446;53.850;10.662;2024-01-30T01:24:12;102705.38;;;2.52;100.00
64933;BME280;51446;53.850;10.662;2024-01-30T01:26:37;102696.44;;;2.49;100.00
64933;BME280;51446;53.850;10.662;2024-01-30T01:29:02;102693.31;;;2.53;100.00
64933;BME280;51446;53.850;10.662;2024-01-30T01:31:34;102694.78;;;2.39;100.00
64933;BME280;51446;53.850;10.662;2024-01-30T01:34:00;102692.28;;;2.18;100.00
64933;BME280;51446;53.850;10.662;2024-01-30T01:36:25;102694.34;;;2.22;100.00
64933;BME280;51446;53.850;10.662;2024-01-30T01:38:50;102695.03;;;2.10;100.00
64933;BME280;51446;53.850;10.662;2024-01-30T01:41:15;102688.28;;;2.12;100.00
64933;BME280;51446;53.850;10.662;2024-01-30T01:43:41;102689.75;;;2.08;100.00
64933;BME280;51446;53.850;10.662;2024-01-30T01:46:06;102693.34;;;2.10;100.00
64933;BME280;51446;53.850;10.662;2024-01-30T01:48:33;102680.63;;;2.23;100.00
64933;BME280;51446;53.850;10.662;2024-01-30T01:50:59;102683.75;;;2.19;100.00
64933;BME280;51446;53.850;10.662;2024-01-30T01:53:24;102666.84;;;2.02;100.00
64933;BME280;51446;53.850;10.662;2024-01-30T01:55:50;102685.41;;;2.19;100.00
64933;BME280;51446;53.850;10.662;2024-01-30T01:58:19;102688.00;;;2.19;100.00
64933;BME280;51446;53.850;10.662;2024-01-30T02:00:45;102681.69;;;2.15;100.00
64933;BME280;51446;53.850;10.662;2024-01-30T02:03:11;102669.16;;;2.10;100.00
64933;BME280;51446;53.850;10.662;2024-01-30T02:05:39;102664.59;;;2.17;100.00
64933;BME280;51446;53.850;10.662;2024-01-30T02:08:05;102673.41;;;2.19;100.00
64933;BME280;51446;53.850;10.662;2024-01-30T02:10:31;102683.72;;;2.30;100.00
64933;BME280;51446;53.850;10.662;2024-01-30T02:12:56;102685.78;;;2.34;100.00
64933;BME280;51446;53.850;10.662;2024-01-30T02:15:22;102682.13;;;2.32;100.00
64933;BME280;51446;53.850;10.662;2024-01-30T02:17:47;102676.78;;;2.40;100.00
64933;BME280;51446;53.850;10.662;2024-01-30T02:20:12;102678.19;;;2.47;100.00
64933;BME280;51446;53.850;10.662;2024-01-30T02:22:39;102678.84;;;2.45;100.00
64933;BME280;51446;53.850;10.662;2024-01-30T02:25:05;102674.31;;;2.42;100.00
64933;BME280;51446;53.850;10.662;2024-01-30T02:27:31;102672.06;;;2.57;100.00
64933;BME280;51446;53.850;10.662;2024-01-30T02:29:56;102673.78;;;2.46;100.00
64933;BME280;51446;53.850;10.662;2024-01-30T02:32:21;102670.91;;;2.53;100.00
64933;BME280;51446;53.850;10.662;2024-01-30T02:34:47;102659.50;;;2.73;100.00
64933;BME280;51446;53.850;10.662;2024-01-30T02:37:12;102663.03;;;2.74;100.00
64933;BME280;51446;53.850;10.662;2024-01-30T02:39:37;102659.03;;;2.67;100.00
64933;BME280;51446;53.850;10.662;2024-01-30T02:42:02;102648.34;;;2.63;100.00
64933;BME280;51446;53.850;10.662;2024-01-30T02:44:28;102646.13;;;2.79;100.00
64933;BME280;51446;53.850;10.662;2024-01-30T02:46:53;102650.31;;;2.77;100.00
64933;BME280;51446;53.850;10.662;2024-01-30T02:49:19;102650.53;;;2.80;100.00
64933;BME280;51446;53.850;10.662;2024-01-30T02:51:44;102639.16;;;2.78;100.00
64933;BME280;51446;53.850;10.662;2024-01-30T02:54:10;102639.31;;;2.91;100.00
64933;BME280;51446;53.850;10.662;2024-01-30T02:56:35;102644.84;;;2.96;100.00
64933;BME280;51446;53.850;10.662;2024-01-30T02:59:00;102641.81;;;2.90;100.00
64933;BME280;51446;53.850;10.662;2024-01-30T03:01:25;102635.47;;;2.86;100.00
64933;BME280;51446;53.850;10.662;2024-01-30T03:03:51;102636.94;;;2.83;100.00
64933;BME280;51446;53.850;10.662;2024-01-30T03:06:16;102623.75;;;2.80;100.00
64933;BME280;51446;53.850;10.662;2024-01-30T03:08:42;102623.66;;;2.68;100.00
64933;BME280;51446;53.850;10.662;2024-01-30T03:11:08;102629.22;;;2.72;100.00
64933;BME280;51446;53.850;10.662;2024-01-30T03:13:33;102632.56;;;2.93;100.00
64933;BME280;51446;53.850;10.662;2024-01-30T03:15:58;102629.84;;;2.92;100.00
64933;BME280;51446;53.850;10.662;2024-01-30T03:18:23;102633.47;;;2.94;100.00
64933;BME280;51446;53.850;10.662;2024-01-30T03:20:48;102621.53;;;2.96;100.00
64933;BME280;51446;53.850;10.662;2024-01-30T03:23:14;102625.50;;;3.03;100.00
64933;BME280;51446;53.850;10.662;2024-01-30T03:25:39;102622.06;;;2.92;100.00
64933;BME280;51446;53.850;10.662;2024-01-30T03:28:04;102617.44;;;2.88;100.00
64933;BME280;51446;53.850;10.662;2024-01-30T03:30:30;102607.44;;;2.92;100.00
64933;BME280;51446;53.850;10.662;2024-01-30T03:32:55;102608.13;;;2.90;100.00
64933;BME280;51446;53.850;10.662;2024-01-30T03:35:20;102615.66;;;2.87;100.00
64933;BME280;51446;53.850;10.662;2024-01-30T03:37:45;102618.78;;;2.83;100.00
64933;BME280;51446;53.850;10.662;2024-01-30T03:40:11;102616.47;;;2.98;100.00
64933;BME280;51446;53.850;10.662;2024-01-30T03:42:36;102608.47;;;2.94;100.00
64933;BME280;51446;53.850;10.662;2024-01-30T03:45:02;102608.47;;;3.06;100.00
64933;BME280;51446;53.850;10.662;2024-01-30T03:47:27;102598.56;;;3.01;100.00
64933;BME280;51446;53.850;10.662;2024-01-30T03:49:52;102603.13;;;2.81;100.00
64933;BME280;51446;53.850;10.662;2024-01-30T03:52:18;102601.50;;;2.71;100.00
64933;BME280;51446;53.850;10.662;2024-01-30T03:54:43;102601.84;;;2.76;100.00
64933;BME280;51446;53.850;10.662;2024-01-30T03:57:08;102596.88;;;2.67;100.00
64933;BME280;51446;53.850;10.662;2024-01-30T03:59:33;102609.47;;;2.63;100.00
64933;BME280;51446;53.850;10.662;2024-01-30T04:01:59;102607.31;;;2.57;100.00
64933;BME280;51446;53.850;10.662;2024-01-30T04:04:24;102607.38;;;2.47;100.00
64933;BME280;51446;53.850;10.662;2024-01-30T04:06:50;102607.38;;;2.47;100.00
64933;BME280;51446;53.850;10.662;2024-01-30T04:09:15;102606.03;;;2.52;100.00
64933;BME280;51446;53.850;10.662;2024-01-30T04:11:41;102608.38;;;2.49;100.00
64933;BME280;51446;53.850;10.662;2024-01-30T04:14:07;102610.25;;;2.62;100.00
64933;BME280;51446;53.850;10.662;2024-01-30T04:16:32;102606.97;;;2.52;100.00
64933;BME280;51446;53.850;10.662;2024-01-30T04:18:58;102609.97;;;2.47;100.00
64933;BME280;51446;53.850;10.662;2024-01-30T04:21:23;102605.56;;;2.46;100.00
64933;BME280;51446;53.850;10.662;2024-01-30T04:23:50;102597.44;;;2.41;100.00
64933;BME280;51446;53.850;10.662;2024-01-30T04:26:15;102595.56;;;2.28;100.00
64933;BME280;51446;53.850;10.662;2024-01-30T04:28:46;102594.47;;;2.14;100.00
64933;BME280;51446;53.850;10.662;2024-01-30T04:31:12;102596.22;;;2.03;100.00
64933;BME280;51446;53.850;10.662;2024-01-30T04:33:37;102596.88;;;2.01;100.00
64933;BME280;51446;53.850;10.662;2024-01-30T04:36:03;102584.22;;;1.94;100.00
64933;BME280;51446;53.850;10.662;2024-01-30T04:38:29;102598.19;;;1.96;100.00
64933;BME280;51446;53.850;10.662;2024-01-30T04:40:54;102602.56;;;1.97;100.00
64933;BME280;51446;53.850;10.662;2024-01-30T04:43:19;102604.69;;;1.90;100.00
64933;BME280;51446;53.850;10.662;2024-01-30T04:45:44;102606.16;;;2.09;100.00
64933;BME280;51446;53.850;10.662;2024-01-30T04:48:10;102606.53;;;2.14;100.00
64933;BME280;51446;53.850;10.662;2024-01-30T04:50:35;102619.63;;;2.05;100.00
64933;BME280;51446;53.850;10.662;2024-01-30T04:53:01;102611.34;;;1.99;100.00
64933;BME280;51446;53.850;10.662;2024-01-30T04:55:26;102606.88;;;1.96;100.00
64933;BME280;51446;53.850;10.662;2024-01-30T04:57:51;102602.13;;;1.80;100.00
64933;BME280;51446;53.850;10.662;2024-01-30T05:00:17;102594.25;;;1.68;100.00
64933;BME280;51446;53.850;10.662;2024-01-30T05:02:42;102600.56;;;1.82;100.00
64933;BME280;51446;53.850;10.662;2024-01-30T05:05:07;102602.22;;;1.92;100.00
64933;BME280;51446;53.850;10.662;2024-01-30T05:07:33;102607.44;;;1.82;100.00
64933;BME280;51446;53.850;10.662;2024-01-30T05:09:59;102607.44;;;1.82;100.00
64933;BME280;51446;53.850;10.662;2024-01-30T05:12:24;102604.72;;;1.80;100.00
64933;BME280;51446;53.850;10.662;2024-01-30T05:14:50;102603.38;;;1.53;100.00
64933;BME280;51446;53.850;10.662;2024-01-30T05:17:15;102597.16;;;1.51;100.00
64933;BME280;51446;53.850;10.662;2024-01-30T05:19:40;102601.44;;;1.50;100.00
64933;BME280;51446;53.850;10.662;2024-01-30T05:22:05;102602.84;;;1.47;100.00
64933;BME280;51446;53.850;10.662;2024-01-30T05:24:30;102593.47;;;1.37;100.00
64933;BME280;51446;53.850;10.662;2024-01-30T05:26:56;102585.19;;;1.31;100.00
64933;BME280;51446;53.850;10.662;2024-01-30T05:29:21;102580.66;;;1.28;100.00
64933;BME280;51446;53.850;10.662;2024-01-30T05:31:47;102582.75;;;1.22;100.00
64933;BME280;51446;53.850;10.662;2024-01-30T05:34:12;102582.63;;;1.20;100.00
64933;BME280;51446;53.850;10.662;2024-01-30T05:36:37;102585.06;;;1.19;100.00
64933;BME280;51446;53.850;10.662;2024-01-30T05:39:02;102581.06;;;1.12;100.00
64933;BME280;51446;53.850;10.662;2024-01-30T05:41:28;102574.47;;;1.26;100.00
64933;BME280;51446;53.850;10.662;2024-01-30T05:43:53;102569.91;;;1.34;100.00
64933;BME280;51446;53.850;10.662;2024-01-30T05:46:18;102575.06;;;1.54;100.00
64933;BME280;51446;53.850;10.662;2024-01-30T05:48:43;102579.44;;;1.55;100.00
64933;BME280;51446;53.850;10.662;2024-01-30T05:51:09;102586.41;;;1.56;100.00
64933;BME280;51446;53.850;10.662;2024-01-30T05:53:34;102576.06;;;1.56;100.00
64933;BME280;51446;53.850;10.662;2024-01-30T05:56:03;102580.97;;;1.64;100.00
64933;BME280;51446;53.850;10.662;2024-01-30T05:58:29;102569.59;;;1.62;100.00
64933;BME280;51446;53.850;10.662;2024-01-30T06:00:54;102577.59;;;1.65;100.00
64933;BME280;51446;53.850;10.662;2024-01-30T06:03:19;102583.78;;;1.67;100.00
64933;BME280;51446;53.850;10.662;2024-01-30T06:05:44;102576.03;;;1.67;100.00
64933;BME280;51446;53.850;10.662;2024-01-30T06:08:10;102573.44;;;1.67;100.00
64933;BME280;51446;53.850;10.662;2024-01-30T06:10:35;102572.56;;;1.66;100.00
64933;BME280;51446;53.850;10.662;2024-01-30T06:13:01;102563.63;;;1.63;100.00
64933;BME280;51446;53.850;10.662;2024-01-30T06:15:26;102562.38;;;1.58;100.00
64933;BME280;51446;53.850;10.662;2024-01-30T06:17:52;102558.75;;;1.55;100.00
64933;BME280;51446;53.850;10.662;2024-01-30T06:20:17;102559.03;;;1.59;100.00
64933;BME280;51446;53.850;10.662;2024-01-30T06:22:43;102563.91;;;1.55;100.00
64933;BME280;51446;53.850;10.662;2024-01-30T06:25:08;102561.47;;;1.57;100.00
64933;BME280;51446;53.850;10.662;2024-01-30T06:27:33;102554.63;;;1.58;100.00
64933;BME280;51446;53.850;10.662;2024-01-30T06:29:58;102564.84;;;1.56;100.00
64933;BME280;51446;53.850;10.662;2024-01-30T06:32:24;102561.34;;;1.55;100.00
64933;BME280;51446;53.850;10.662;2024-01-30T06:34:49;102557.22;;;1.58;100.00
64933;BME280;51446;53.850;10.662;2024-01-30T06:37:14;102558.63;;;1.64;100.00
64933;BME280;51446;53.850;10.662;2024-01-30T06:39:40;102557.03;;;1.66;100.00
64933;BME280;51446;53.850;10.662;2024-01-30T06:42:05;102551.94;;;1.78;100.00
64933;BME280;51446;53.850;10.662;2024-01-30T06:44:30;102551.00;;;1.88;100.00
64933;BME280;51446;53.850;10.662;2024-01-30T06:46:55;102555.00;;;1.95;100.00
64933;BME280;51446;53.850;10.662;2024-01-30T06:49:21;102554.31;;;1.97;100.00
64933;BME280;51446;53.850;10.662;2024-01-30T06:51:47;102558.47;;;1.95;100.00
64933;BME280;51446;53.850;10.662;2024-01-30T06:54:12;102554.94;;;2.05;100.00
64933;BME280;51446;53.850;10.662;2024-01-30T06:56:37;102561.47;;;2.12;100.00
64933;BME280;51446;53.850;10.662;2024-01-30T06:59:02;102565.00;;;2.12;100.00
64933;BME280;51446;53.850;10.662;2024-01-30T07:01:31;102562.53;;;2.14;100.00
64933;BME280;51446;53.850;10.662;2024-01-30T07:03:57;102559.94;;;2.14;100.00
64933;BME280;51446;53.850;10.662;2024-01-30T07:06:22;102563.66;;;2.17;100.00
64933;BME280;51446;53.850;10.662;2024-01-30T07:08:49;102565.34;;;2.17;100.00
64933;BME280;51446;53.850;10.662;2024-01-30T07:11:21;102556.81;;;2.18;100.00
64933;BME280;51446;53.850;10.662;2024-01-30T07:13:47;102565.06;;;2.24;100.00
64933;BME280;51446;53.850;10.662;2024-01-30T07:16:14;102562.56;;;2.25;100.00
64933;BME280;51446;53.850;10.662;2024-01-30T07:18:39;102557.22;;;2.34;100.00
64933;BME280;51446;53.850;10.662;2024-01-30T07:21:04;102557.88;;;2.32;100.00
64933;BME280;51446;53.850;10.662;2024-01-30T07:23:30;102559.56;;;2.31;100.00
64933;BME280;51446;53.850;10.662;2024-01-30T07:25:55;102561.44;;;2.44;100.00
64933;BME280;51446;53.850;10.662;2024-01-30T07:28:20;102562.84;;;2.40;100.00
64933;BME280;51446;53.850;10.662;2024-01-30T07:30:46;102559.84;;;2.46;100.00
64933;BME280;51446;53.850;10.662;2024-01-30T07:33:12;102567.63;;;2.46;100.00
64933;BME280;51446;53.850;10.662;2024-01-30T07:35:37;102554.00;;;2.49;100.00
64933;BME280;51446;53.850;10.662;2024-01-30T07:38:03;102565.34;;;2.61;100.00
64933;BME280;51446;53.850;10.662;2024-01-30T07:40:28;102560.63;;;2.79;100.00
64933;BME280;51446;53.850;10.662;2024-01-30T07:42:54;102560.59;;;3.01;100.00
64933;BME280;51446;53.850;10.662;2024-01-30T07:45:19;102565.69;;;3.11;100.00
64933;BME280;51446;53.850;10.662;2024-01-30T07:47:49;102551.13;;;3.25;100.00
64933;BME280;51446;53.850;10.662;2024-01-30T07:50:15;102559.94;;;3.39;100.00
64933;BME280;51446;53.850;10.662;2024-01-30T07:52:40;102560.28;;;3.56;100.00
64933;BME280;51446;53.850;10.662;2024-01-30T07:55:05;102550.66;;;3.78;100.00
64933;BME280;51446;53.850;10.662;2024-01-30T07:57:32;102542.03;;;4.03;100.00
64933;BME280;51446;53.850;10.662;2024-01-30T07:59:59;102538.38;;;3.88;100.00
64933;BME280;51446;53.850;10.662;2024-01-30T08:02:24;102530.00;;;3.80;100.00
64933;BME280;51446;53.850;10.662;2024-01-30T08:04:49;102531.81;;;3.81;100.00
64933;BME280;51446;53.850;10.662;2024-01-30T08:07:15;102537.81;;;3.80;100.00
64933;BME280;51446;53.850;10.662;2024-01-30T08:09:40;102531.91;;;3.94;100.00
64933;BME280;51446;53.850;10.662;2024-01-30T08:12:06;102539.25;;;3.88;100.00
64933;BME280;51446;53.850;10.662;2024-01-30T08:14:31;102538.84;;;3.82;100.00
64933;BME280;51446;53.850;10.662;2024-01-30T08:16:56;102533.84;;;3.85;100.00
64933;BME280;51446;53.850;10.662;2024-01-30T08:19:21;102535.31;;;3.81;100.00
64933;BME280;51446;53.850;10.662;2024-01-30T08:21:47;102544.34;;;3.87;100.00
64933;BME280;51446;53.850;10.662;2024-01-30T08:24:12;102540.97;;;3.88;100.00
64933;BME280;51446;53.850;10.662;2024-01-30T08:26:37;102541.25;;;4.04;100.00
64933;BME280;51446;53.850;10.662;2024-01-30T08:29:03;102538.97;;;4.09;100.00
64933;BME280;51446;53.850;10.662;2024-01-30T08:31:29;102539.78;;;4.08;100.00
64933;BME280;51446;53.850;10.662;2024-01-30T08:33:54;102540.00;;;4.11;100.00
64933;BME280;51446;53.850;10.662;2024-01-30T08:36:19;102536.47;;;4.10;100.00
64933;BME280;51446;53.850;10.662;2024-01-30T08:38:45;102533.53;;;4.17;100.00
64933;BME280;51446;53.850;10.662;2024-01-30T08:41:10;102530.56;;;4.25;100.00
64933;BME280;51446;53.850;10.662;2024-01-30T08:43:35;102532.78;;;4.32;100.00
64933;BME280;51446;53.850;10.662;2024-01-30T08:46:02;102522.59;;;4.47;100.00
64933;BME280;51446;53.850;10.662;2024-01-30T08:48:27;102523.78;;;4.52;100.00
64933;BME280;51446;53.850;10.662;2024-01-30T08:50:52;102520.72;;;4.58;100.00
64933;BME280;51446;53.850;10.662;2024-01-30T08:53:18;102508.94;;;4.63;100.00
64933;BME280;51446;53.850;10.662;2024-01-30T08:55:44;102512.22;;;4.60;100.00
64933;BME280;51446;53.850;10.662;2024-01-30T08:58:09;102512.44;;;4.77;100.00
64933;BME280;51446;53.850;10.662;2024-01-30T09:00:34;102515.00;;;4.89;100.00
64933;BME280;51446;53.850;10.662;2024-01-30T09:03:00;102515.09;;;4.90;100.00
64933;BME280;51446;53.850;10.662;2024-01-30T09:05:25;102504.41;;;4.99;100.00
64933;BME280;51446;53.850;10.662;2024-01-30T09:07:50;102509.13;;;5.04;100.00
64933;BME280;51446;53.850;10.662;2024-01-30T09:10:15;102502.44;;;5.21;100.00
64933;BME280;51446;53.850;10.662;2024-01-30T09:12:41;102500.94;;;5.25;100.00
64933;BME280;51446;53.850;10.662;2024-01-30T09:15:06;102488.81;;;5.52;100.00
64933;BME280;51446;53.850;10.662;2024-01-30T09:17:32;102487.50;;;5.59;100.00
64933;BME280;51446;53.850;10.662;2024-01-30T09:19:58;102487.56;;;5.74;100.00
64933;BME280;51446;53.850;10.662;2024-01-30T09:22:23;102482.31;;;5.87;100.00
64933;BME280;51446;53.850;10.662;2024-01-30T09:24:48;102491.66;;;5.84;100.00
64933;BME280;51446;53.850;10.662;2024-01-30T09:27:14;102475.78;;;6.07;100.00
64933;BME280;51446;53.850;10.662;2024-01-30T09:29:39;102472.63;;;5.98;100.00
64933;BME280;51446;53.850;10.662;2024-01-30T09:32:05;102478.66;;;6.12;100.00
64933;BME280;51446;53.850;10.662;2024-01-30T09:34:31;102484.81;;;6.28;100.00
64933;BME280;51446;53.850;10.662;2024-01-30T09:36:56;102482.47;;;6.32;100.00
64933;BME280;51446;53.850;10.662;2024-01-30T09:39:22;102467.06;;;6.50;100.00
64933;BME280;51446;53.850;10.662;2024-01-30T09:41:58;102465.00;;;6.45;100.00
64933;BME280;51446;53.850;10.662;2024-01-30T09:44:28;102458.47;;;6.51;100.00
64933;BME280;51446;53.850;10.662;2024-01-30T09:46:54;102452.94;;;6.47;100.00
64933;BME280;51446;53.850;10.662;2024-01-30T09:49:20;102441.28;;;6.85;100.00
64933;BME280;51446;53.850;10.662;2024-01-30T09:51:46;102434.31;;;7.15;100.00
64933;BME280;51446;53.850;10.662;2024-01-30T09:54:13;102445.16;;;7.38;100.00
64933;BME280;51446;53.850;10.662;2024-01-30T09:56:39;102458.75;;;7.80;100.00
64933;BME280;51446;53.850;10.662;2024-01-30T09:59:04;102457.47;;;8.05;100.00
64933;BME280;51446;53.850;10.662;2024-01-30T10:01:30;102459.19;;;8.04;100.00
64933;BME280;51446;53.850;10.662;2024-01-30T10:03:56;102462.19;;;8.12;100.00
64933;BME280;51446;53.850;10.662;2024-01-30T10:06:22;102461.22;;;7.77;100.00
64933;BME280;51446;53.850;10.662;2024-01-30T10:08:49;102471.44;;;7.57;100.00
64933;BME280;51446;53.850;10.662;2024-01-30T10:11:14;102465.63;;;7.94;100.00
64933;BME280;51446;53.850;10.662;2024-01-30T10:13:40;102473.72;;;8.15;100.00
64933;BME280;51446;53.850;10.662;2024-01-30T10:16:06;102472.50;;;8.09;100.00
64933;BME280;51446;53.850;10.662;2024-01-30T10:18:32;102472.97;;;7.85;100.00
64933;BME280;51446;53.850;10.662;2024-01-30T10:20:57;102468.63;;;7.86;100.00
64933;BME280;51446;53.850;10.662;2024-01-30T10:23:22;102469.81;;;7.91;100.00
64933;BME280;51446;53.850;10.662;2024-01-30T10:25:47;102457.56;;;7.90;100.00
64933;BME280;51446;53.850;10.662;2024-01-30T10:28:13;102468.31;;;7.96;100.00
64933;BME280;51446;53.850;10.662;2024-01-30T10:30:38;102451.31;;;7.88;100.00
64933;BME280;51446;53.850;10.662;2024-01-30T10:33:03;102452.16;;;7.87;100.00
64933;BME280;51446;53.850;10.662;2024-01-30T10:35:29;102448.22;;;7.78;100.00
64933;BME280;51446;53.850;10.662;2024-01-30T10:37:56;102446.69;;;7.98;100.00
64933;BME280;51446;53.850;10.662;2024-01-30T10:40:27;102452.78;;;7.66;100.00
64933;BME280;51446;53.850;10.662;2024-01-30T10:42:52;102454.59;;;8.00;100.00
64933;BME280;51446;53.850;10.662;2024-01-30T10:45:21;102447.81;;;7.87;100.00
64933;BME280;51446;53.850;10.662;2024-01-30T10:47:53;102443.28;;;7.99;100.00
64933;BME280;51446;53.850;10.662;2024-01-30T10:50:19;102443.41;;;7.86;100.00
64933;BME280;51446;53.850;10.662;2024-01-30T10:52:45;102435.91;;;8.09;100.00
64933;BME280;51446;53.850;10.662;2024-01-30T10:55:12;102438.34;;;7.73;100.00
64933;BME280;51446;53.850;10.662;2024-01-30T10:57:38;102428.69;;;7.55;100.00
64933;BME280;51446;53.850;10.662;2024-01-30T11:00:07;102429.81;;;7.44;100.00
64933;BME280;51446;53.850;10.662;2024-01-30T11:02:38;102431.63;;;7.61;100.00
64933;BME280;51446;53.850;10.662;2024-01-30T11:05:05;102429.44;;;7.69;100.00
64933;BME280;51446;53.850;10.662;2024-01-30T11:07:30;102426.34;;;7.76;100.00
64933;BME280;51446;53.850;10.662;2024-01-30T11:12:25;102416.66;;;8.07;100.00
64933;BME280;51446;53.850;10.662;2024-01-30T11:15:03;102409.44;;;8.36;100.00
64933;BME280;51446;53.850;10.662;2024-01-30T11:17:40;102410.25;;;8.18;100.00
64933;BME280;51446;53.850;10.662;2024-01-30T11:20:09;102409.34;;;8.34;100.00
64933;BME280;51446;53.850;10.662;2024-01-30T11:22:35;102417.09;;;8.32;100.00
64933;BME280;51446;53.850;10.662;2024-01-30T11:25:01;102413.22;;;8.42;100.00
64933;BME280;51446;53.850;10.662;2024-01-30T11:27:29;102413.47;;;8.63;100.00
64933;BME280;51446;53.850;10.662;2024-01-30T11:30:02;102412.97;;;8.54;100.00
64933;BME280;51446;53.850;10.662;2024-01-30T11:32:27;102405.47;;;8.44;100.00
64933;BME280;51446;53.850;10.662;2024-01-30T11:34:55;102417.34;;;8.37;100.00
64933;BME280;51446;53.850;10.662;2024-01-30T11:37:21;102411.09;;;8.17;100.00
64933;BME280;51446;53.850;10.662;2024-01-30T11:39:48;102414.44;;;8.14;100.00
64933;BME280;51446;53.850;10.662;2024-01-30T11:42:13;102401.16;;;8.28;100.00
64933;BME280;51446;53.850;10.662;2024-01-30T11:44:38;102396.69;;;8.25;100.00
64933;BME280;51446;53.850;10.662;2024-01-30T11:47:04;102397.97;;;8.33;100.00
64933;BME280;51446;53.850;10.662;2024-01-30T11:49:29;102392.88;;;8.19;100.00
64933;BME280;51446;53.850;10.662;2024-01-30T11:51:54;102385.59;;;8.13;100.00
64933;BME280;51446;53.850;10.662;2024-01-30T11:54:20;102393.06;;;8.05;100.00
64933;BME280;51446;53.850;10.662;2024-01-30T11:56:45;102392.94;;;8.04;100.00
64933;BME280;51446;53.850;10.662;2024-01-30T11:59:10;102390.59;;;7.92;100.00
64933;BME280;51446;53.850;10.662;2024-01-30T12:01:36;102387.34;;;7.96;100.00
64933;BME280;51446;53.850;10.662;2024-01-30T12:04:01;102385.03;;;8.02;100.00
64933;BME280;51446;53.850;10.662;2024-01-30T12:06:28;102380.66;;;8.01;100.00
64933;BME280;51446;53.850;10.662;2024-01-30T12:11:23;102368.84;;;8.09;100.00
64933;BME280;51446;53.850;10.662;2024-01-30T12:13:48;102371.31;;;8.06;100.00
64933;BME280;51446;53.850;10.662;2024-01-30T12:16:13;102371.81;;;7.99;100.00
64933;BME280;51446;53.850;10.662;2024-01-30T12:18:38;102363.75;;;7.94;100.00
64933;BME280;51446;53.850;10.662;2024-01-30T12:21:04;102364.56;;;8.10;100.00
64933;BME280;51446;53.850;10.662;2024-01-30T12:23:30;102371.31;;;8.23;100.00
64933;BME280;51446;53.850;10.662;2024-01-30T12:25:55;102366.44;;;8.12;100.00
64933;BME280;51446;53.850;10.662;2024-01-30T12:28:21;102359.31;;;8.10;100.00
64933;BME280;51446;53.850;10.662;2024-01-30T12:30:46;102368.13;;;8.12;100.00
64933;BME280;51446;53.850;10.662;2024-01-30T12:33:17;102360.13;;;8.09;100.00
64933;BME280;51446;53.850;10.662;2024-01-30T12:35:47;102363.06;;;8.15;100.00
64933;BME280;51446;53.850;10.662;2024-01-30T12:38:15;102360.09;;;8.25;100.00